Time;durP1;ratioP1;P1;durP2;ratioP2;P2;SDS_P1;SDS_P2;PMS_P1;PMS_P2;Temp;Humidity;BMP_temperature;BMP_pressure;BME280_temperature;BME280_humidity;BME280_pressure;Samples;Min_cycle;Max_cycle;Signal;HPM_P1;HPM_P2
2023/06/20 00:01:30;;;;;;;11.77;6.72;;;23.20;99.90;;;;;;5034045;28;20543;-54
2023/06/20 00:03:56;;;;;;;9.00;6.05;;;23.00;99.90;;;;;;5033710;28;20096;-55
2023/06/20 00:06:22;;;;;;;8.43;6.50;;;22.80;99.90;;;;;;5033434;28;20037;-51
2023/06/20 00:08:48;;;;;;;8.98;6.35;;;22.90;99.90;;;;;;5033827;28;20017;-53
2023/06/20 00:11:13;;;;;;;7.55;6.28;;;22.70;99.90;;;;;;5032525;28;20021;-56
2023/06/20 00:13:42;;;;;;;8.95;6.25;;;22.70;99.90;;;;;;5033470;28;20022;-50
2023/06/20 00:16:11;;;;;;;10.15;7.43;;;22.60;99.90;;;;;;5033386;28;20022;-50
2023/06/20 00:18:37;;;;;;;11.13;6.30;;;22.50;99.90;;;;;;5034019;28;20108;-50
2023/06/20 00:21:03;;;;;;;11.00;6.82;;;22.50;99.90;;;;;;5032341;28;20505;-52
2023/06/20 00:23:29;;;;;;;8.68;6.65;;;22.40;99.90;;;;;;5033427;28;20044;-51
2023/06/20 00:25:56;;;;;;;10.65;5.93;;;22.40;99.90;;;;;;5033260;28;20026;-49
2023/06/20 00:28:21;;;;;;;8.57;6.82;;;22.40;99.90;;;;;;5033503;28;20033;-50
2023/06/20 00:30:47;;;;;;;10.85;6.57;;;22.30;99.90;;;;;;5032513;28;20025;-50
2023/06/20 00:33:12;;;;;;;10.15;6.55;;;22.40;99.90;;;;;;5032861;28;20033;-50
2023/06/20 00:35:38;;;;;;;11.32;6.47;;;22.50;99.90;;;;;;5032986;28;20038;-53
2023/06/20 00:38:04;;;;;;;11.18;6.47;;;22.50;99.90;;;;;;5033349;28;20032;-50
2023/06/20 00:40:29;;;;;;;7.28;6.43;;;22.60;99.90;;;;;;5033371;28;20021;-51
2023/06/20 00:42:55;;;;;;;8.70;7.45;;;22.60;99.90;;;;;;5031367;28;20111;-50
2023/06/20 00:45:32;;;;;;;11.60;7.20;;;22.60;99.90;;;;;;5031592;28;20060;-53
2023/06/20 00:47:58;;;;;;;7.28;6.57;;;22.60;99.90;;;;;;5033245;28;20021;-49
2023/06/20 00:50:27;;;;;;;10.07;6.63;;;22.60;99.90;;;;;;5033178;28;20021;-54
2023/06/20 00:52:57;;;;;;;10.63;6.78;;;22.70;99.90;;;;;;5033001;28;20025;-52
2023/06/20 00:55:22;;;;;;;7.07;6.38;;;22.60;99.90;;;;;;5031304;28;20592;-50
2023/06/20 00:57:48;;;;;;;6.82;6.07;;;22.60;99.90;;;;;;5032853;28;20113;-54
2023/06/20 01:00:14;;;;;;;8.07;7.10;;;22.70;99.90;;;;;;5033052;28;20362;-54
2023/06/20 01:02:46;;;;;;;7.70;6.75;;;22.80;99.90;;;;;;5032441;28;20017;-53
2023/06/20 01:05:15;;;;;;;8.70;6.95;;;22.80;99.90;;;;;;5031854;28;20489;-54
2023/06/20 01:07:59;;;;;;;8.75;7.93;;;22.80;99.90;;;;;;5031340;28;20029;-50
2023/06/20 01:10:47;;;;;;;9.77;8.20;;;22.90;99.90;;;;;;5032808;28;20121;-49
2023/06/20 01:13:35;;;;;;;10.48;7.63;;;22.90;99.90;;;;;;5032266;28;20040;-52
2023/06/20 01:16:16;;;;;;;10.38;8.85;;;22.90;99.90;;;;;;5032337;28;20103;-52
2023/06/20 01:18:55;;;;;;;11.15;8.75;;;23.00;99.90;;;;;;5032571;28;20032;-54
2023/06/20 01:21:37;;;;;;;10.95;8.65;;;22.90;99.90;;;;;;5032353;28;20103;-54
2023/06/20 01:24:19;;;;;;;13.20;9.13;;;22.90;99.90;;;;;;5031858;28;20034;-52
2023/06/20 01:26:54;;;;;;;12.57;8.90;;;22.80;99.90;;;;;;5032280;28;20037;-55
2023/06/20 01:29:22;;;;;;;;;;;22.70;99.90;;;;;;5033155;28;20033;-53
2023/06/20 01:31:55;;;;;;;10.93;9.90;;;22.60;99.90;;;;;;5031397;28;20307;-52
2023/06/20 01:34:29;;;;;;;11.13;8.85;;;22.40;99.90;;;;;;5031702;28;20865;-50
2023/06/20 01:37:00;;;;;;;18.88;9.88;;;22.20;99.90;;;;;;5032350;28;20036;-52
2023/06/20 01:39:31;;;;;;;11.98;10.10;;;22.10;99.90;;;;;;5032278;28;20026;-53
2023/06/20 01:42:01;;;;;;;14.05;9.40;;;22.10;99.90;;;;;;5032550;28;20032;-51
2023/06/20 01:44:29;;;;;;;10.32;9.02;;;22.00;99.90;;;;;;5031231;28;20026;-52
2023/06/20 01:46:57;;;;;;;12.20;10.05;;;22.00;99.90;;;;;;5032226;28;20029;-51
2023/06/20 01:49:24;;;;;;;13.45;9.77;;;22.00;99.90;;;;;;5032063;28;20029;-52
2023/06/20 01:51:55;;;;;;;13.90;10.20;;;22.10;99.90;;;;;;5032287;28;20033;-54
2023/06/20 01:54:27;;;;;;;11.43;9.60;;;22.00;99.90;;;;;;5031548;28;20022;-54
2023/06/20 01:56:54;;;;;;;13.32;9.32;;;22.00;99.90;;;;;;5032109;28;20117;-53
2023/06/20 01:59:20;;;;;;;10.90;9.77;;;22.00;99.90;;;;;;5032236;28;20017;-50
2023/06/20 02:01:48;;;;;;;13.70;9.70;;;22.10;99.90;;;;;;5031764;28;20505;-54
2023/06/20 02:04:16;;;;;;;10.38;9.10;;;22.00;99.90;;;;;;5029809;28;20087;-58
2023/06/20 02:06:43;;;;;;;9.70;8.70;;;22.10;99.90;;;;;;5031722;28;20413;-53
2023/06/20 02:09:09;;;;;;;12.50;9.48;;;22.10;99.90;;;;;;5031763;28;20044;-55
2023/06/20 02:11:36;;;;;;;12.65;9.63;;;22.20;99.90;;;;;;5031532;28;20096;-53
2023/06/20 02:14:02;;;;;;;11.10;9.07;;;22.30;99.90;;;;;;5032471;28;20041;-56
2023/06/20 02:16:30;;;;;;;12.63;9.68;;;22.30;99.90;;;;;;5031322;28;20029;-54
2023/06/20 02:18:56;;;;;;;11.43;10.23;;;22.40;99.90;;;;;;5031672;28;20022;-51
2023/06/20 02:21:27;;;;;;;13.95;9.35;;;22.40;99.90;;;;;;5031518;28;20036;-52
2023/06/20 02:23:54;;;;;;;11.70;9.55;;;22.30;99.90;;;;;;5029953;28;20029;-52
2023/06/20 02:26:26;;;;;;;13.05;9.30;;;22.10;99.90;;;;;;5031181;28;20029;-55
2023/06/20 02:28:57;;;;;;;12.25;9.40;;;22.10;99.90;;;;;;5030346;28;20175;-54
2023/06/20 02:31:27;;;;;;;11.90;10.43;;;22.00;99.90;;;;;;5030469;28;20545;-54
2023/06/20 02:33:56;;;;;;;11.02;9.88;;;21.80;99.90;;;;;;5031210;28;20615;-55
2023/06/20 02:36:25;;;;;;;13.50;10.10;;;21.90;99.90;;;;;;5031021;28;20124;-54
2023/06/20 02:38:53;;;;;;;10.45;9.45;;;21.90;99.90;;;;;;5031458;28;20045;-50
2023/06/20 02:41:19;;;;;;;10.32;9.18;;;21.90;99.90;;;;;;5031323;28;20026;-53
2023/06/20 02:43:45;;;;;;;10.07;8.82;;;21.90;99.90;;;;;;5031049;28;20119;-55
2023/06/20 02:46:27;;;;;;;17.30;9.93;;;22.00;99.90;;;;;;5030985;28;20030;-52
2023/06/20 02:49:17;;;;;;;11.32;10.20;;;22.00;99.90;;;;;;5030097;28;20030;-49
2023/06/20 02:52:18;;;;;;;13.15;10.82;;;21.90;99.90;;;;;;5031312;28;20404;-51
2023/06/20 02:55:05;;;;;;;11.35;9.18;;;21.90;99.90;;;;;;5030428;28;20029;-53
2023/06/20 02:57:31;;;;;;;14.30;10.07;;;21.90;99.90;;;;;;5031161;28;20025;-54
2023/06/20 03:00:09;;;;;;;10.85;9.75;;;21.80;99.90;;;;;;5031230;28;20118;-54
2023/06/20 03:02:39;;;;;;;11.80;9.50;;;21.90;99.90;;;;;;5030909;28;20017;-52
2023/06/20 03:05:09;;;;;;;13.60;8.85;;;21.90;99.90;;;;;;5030835;28;20382;-54
2023/06/20 03:07:36;;;;;;;10.88;9.55;;;21.90;99.90;;;;;;5031454;28;20022;-54
2023/06/20 03:10:04;;;;;;;14.75;11.40;;;21.90;99.90;;;;;;5031084;28;20512;-53
2023/06/20 03:12:30;;;;;;;10.80;9.80;;;22.00;99.90;;;;;;5031046;28;20025;-51
2023/06/20 03:14:56;;;;;;;12.20;10.65;;;21.90;99.90;;;;;;5030696;28;20071;-52
2023/06/20 03:17:21;;;;;;;17.48;11.60;;;22.10;99.90;;;;;;5031145;28;20021;-50
2023/06/20 03:19:47;;;;;;;15.75;11.63;;;22.10;99.90;;;;;;5031408;28;20057;-50
2023/06/20 03:22:12;;;;;;;13.38;10.35;;;22.20;99.90;;;;;;5030775;28;20037;-50
2023/06/20 03:24:38;;;;;;;10.25;9.25;;;22.10;99.90;;;;;;5030148;28;20128;-55
2023/06/20 03:27:04;;;;;;;10.90;9.05;;;22.10;99.90;;;;;;5031052;28;20029;-54
2023/06/20 03:29:29;;;;;;;11.07;9.40;;;22.10;99.90;;;;;;5032388;28;20406;-51
2023/06/20 03:31:55;;;;;;;11.35;10.30;;;22.10;99.90;;;;;;5032135;28;20021;-55
2023/06/20 03:34:20;;;;;;;10.68;8.88;;;22.10;99.90;;;;;;5033783;28;20030;-51
2023/06/20 03:36:46;;;;;;;14.50;10.88;;;22.10;99.90;;;;;;5034378;28;20025;-55
2023/06/20 03:39:11;;;;;;;13.15;11.35;;;22.10;99.90;;;;;;5034456;28;20030;-49
2023/06/20 03:41:37;;;;;;;13.73;10.82;;;22.20;99.90;;;;;;5033064;28;20397;-53
2023/06/20 03:44:03;;;;;;;11.48;10.38;;;22.20;99.90;;;;;;5033747;28;20400;-49
2023/06/20 03:46:28;;;;;;;10.40;9.50;;;22.20;99.90;;;;;;5034316;28;20448;-55
2023/06/20 03:48:54;;;;;;;10.77;9.68;;;22.20;99.90;;;;;;5034970;28;20111;-54
2023/06/20 03:51:19;;;;;;;9.82;8.82;;;22.20;99.90;;;;;;5036120;28;20068;-55
2023/06/20 03:53:45;;;;;;;15.85;10.48;;;22.20;99.90;;;;;;5035485;28;20026;-54
2023/06/20 03:56:11;;;;;;;13.23;9.35;;;22.10;99.90;;;;;;5034551;28;20021;-54
2023/06/20 03:58:36;;;;;;;12.63;11.30;;;22.10;99.90;;;;;;5035327;28;20022;-51
2023/06/20 04:01:02;;;;;;;12.65;11.38;;;22.10;99.90;;;;;;5034414;28;20029;-54
2023/06/20 04:03:28;;;;;;;16.02;11.50;;;22.10;99.90;;;;;;5033568;28;20034;-51
2023/06/20 04:05:54;;;;;;;14.05;11.65;;;22.10;99.90;;;;;;5033533;28;20021;-50
2023/06/20 04:08:19;;;;;;;15.80;11.80;;;22.00;99.90;;;;;;5033868;28;20037;-52
2023/06/20 04:10:45;;;;;;;14.68;11.13;;;22.10;99.90;;;;;;5034048;28;20021;-53
2023/06/20 04:13:10;;;;;;;11.77;10.48;;;22.00;99.90;;;;;;5033455;28;20504;-50
2023/06/20 04:15:36;;;;;;;10.60;9.60;;;22.10;99.90;;;;;;5033272;28;20025;-49
2023/06/20 04:18:01;;;;;;;11.52;10.40;;;22.10;99.90;;;;;;5034128;28;20037;-51
2023/06/20 04:20:27;;;;;;;11.23;9.98;;;22.10;99.90;;;;;;5034126;28;20021;-53
2023/06/20 04:22:52;;;;;;;10.63;9.63;;;22.20;99.90;;;;;;5032932;28;20045;-54
2023/06/20 04:25:18;;;;;;;11.80;10.80;;;22.20;99.90;;;;;;5031888;28;20500;-52
2023/06/20 04:27:44;;;;;;;12.27;11.00;;;22.20;99.90;;;;;;5033525;28;20021;-51
2023/06/20 04:30:10;;;;;;;16.60;10.45;;;22.30;99.90;;;;;;5033632;28;20056;-51
2023/06/20 04:32:37;;;;;;;11.68;10.55;;;22.30;99.90;;;;;;5031797;28;20069;-53
2023/06/20 04:35:03;;;;;;;11.45;10.10;;;22.30;99.90;;;;;;5032955;28;20076;-52
2023/06/20 04:37:29;;;;;;;11.55;10.27;;;22.40;99.90;;;;;;5033419;28;20025;-52
2023/06/20 04:39:56;;;;;;;10.50;9.60;;;22.40;99.90;;;;;;5033626;28;20026;-49
2023/06/20 04:42:22;;;;;;;10.88;9.77;;;22.50;99.90;;;;;;5033167;28;20374;-49
2023/06/20 04:44:48;;;;;;;15.13;9.98;;;22.50;99.90;;;;;;5032526;28;20029;-51
2023/06/20 04:47:14;;;;;;;11.65;10.45;;;22.70;99.90;;;;;;5033078;28;20075;-51
2023/06/20 04:49:43;;;;;;;18.17;11.48;;;22.90;99.90;;;;;;5033176;28;20033;-51
2023/06/20 04:52:09;;;;;;;9.65;8.85;;;23.20;99.90;;;;;;5033060;28;20025;-50
2023/06/20 04:54:34;;;;;;;11.35;10.05;;;23.50;99.90;;;;;;5032264;28;20083;-53
2023/06/20 04:57:02;;;;;;;13.32;10.05;;;23.80;99.90;;;;;;5032944;28;20022;-54
2023/06/20 04:59:27;;;;;;;10.23;9.20;;;24.60;99.90;;;;;;5033328;28;20140;-47
2023/06/20 05:01:53;;;;;;;11.95;9.93;;;25.20;99.90;;;;;;5032937;28;20095;-49
2023/06/20 05:04:18;;;;;;;12.50;9.05;;;25.40;99.90;;;;;;5032258;28;20029;-49
2023/06/20 05:06:46;;;;;;;11.55;10.32;;;25.30;99.90;;;;;;5031405;28;20053;-50
2023/06/20 05:09:12;;;;;;;13.32;9.63;;;25.60;99.90;;;;;;5031523;28;20096;-47
2023/06/20 05:11:37;;;;;;;12.77;9.35;;;26.30;99.90;;;;;;5031491;28;20577;-50
2023/06/20 05:14:02;;;;;;;8.77;7.97;;;27.00;99.90;;;;;;5031867;28;20108;-48
2023/06/20 05:16:28;;;;;;;14.63;10.45;;;27.70;99.90;;;;;;5031540;28;20021;-50
2023/06/20 05:18:53;;;;;;;10.55;9.45;;;28.20;99.90;;;;;;5032904;28;20116;-51
2023/06/20 05:21:19;;;;;;;11.55;9.00;;;28.70;99.90;;;;;;5032511;28;20022;-50
2023/06/20 05:23:45;;;;;;;15.38;9.57;;;28.90;99.90;;;;;;5086986;22;20428;-50
2023/06/20 05:26:11;;;;;;;9.55;8.65;;;28.60;99.90;;;;;;5071866;28;20019;-49
2023/06/20 05:28:37;;;;;;;10.35;8.02;;;28.80;99.90;;;;;;5072505;28;20020;-50
2023/06/20 05:31:03;;;;;;;9.73;8.25;;;29.10;99.90;;;;;;5071429;28;20742;-50
2023/06/20 05:33:28;;;;;;;8.80;7.72;;;29.80;99.90;;;;;;5070314;28;20400;-52
2023/06/20 05:35:54;;;;;;;10.15;7.95;;;29.70;99.90;;;;;;5071802;28;20028;-50
2023/06/20 05:38:19;;;;;;;8.68;7.72;;;30.20;99.90;;;;;;5072098;28;20104;-51
2023/06/20 05:40:44;;;;;;;8.52;7.50;;;30.80;99.90;;;;;;5072065;28;20361;-52
2023/06/20 05:43:10;;;;;;;10.02;7.57;;;31.10;99.90;;;;;;5071688;28;20028;-51
2023/06/20 05:45:35;;;;;;;8.63;7.65;;;31.50;99.90;;;;;;5053583;28;20060;-51
2023/06/20 05:48:01;;;;;;;9.07;6.75;;;32.00;99.90;;;;;;5071906;28;20119;-51
2023/06/20 05:50:26;;;;;;;9.05;7.22;;;32.10;99.90;;;;;;5054069;28;20483;-51
2023/06/20 05:52:52;;;;;;;8.48;7.68;;;32.60;99.90;;;;;;5070772;28;20100;-51
2023/06/20 05:55:19;;;;;;;16.23;8.02;;;32.00;99.90;;;;;;5071408;28;20511;-52
2023/06/20 05:57:45;;;;;;;8.75;7.80;;;31.50;99.90;;;;;;5071917;28;20017;-51
2023/06/20 06:00:12;;;;;;;7.90;7.00;;;31.30;99.90;;;;;;5071820;28;20396;-52
2023/06/20 06:02:44;;;;;;;7.95;7.15;;;31.40;99.90;;;;;;5071320;28;20499;-52
2023/06/20 06:05:10;;;;;;;10.48;8.18;;;31.80;99.90;;;;;;5071308;28;20024;-51
2023/06/20 06:07:37;;;;;;;9.55;8.43;;;32.20;99.60;;;;;;5071494;28;20051;-53
2023/06/20 06:10:03;;;;;;;9.05;8.18;;;31.90;99.70;;;;;;5072016;28;20025;-53
2023/06/20 06:12:28;;;;;;;9.63;8.60;;;32.00;99.90;;;;;;5071358;28;20031;-49
2023/06/20 06:14:54;;;;;;;9.07;8.18;;;32.20;99.70;;;;;;5070745;28;20115;-51
2023/06/20 06:17:20;;;;;;;9.35;7.78;;;32.60;99.30;;;;;;5071441;28;20021;-54
2023/06/20 06:19:45;;;;;;;8.43;7.63;;;33.20;98.50;;;;;;5071739;28;20066;-49
2023/06/20 06:22:10;;;;;;;9.18;8.27;;;33.30;98.10;;;;;;5071586;28;20134;-51
2023/06/20 06:24:36;;;;;;;10.85;7.80;;;32.10;98.30;;;;;;5070933;28;20111;-49
2023/06/20 06:27:03;;;;;;;15.15;9.68;;;30.80;99.90;;;;;;5071267;28;20036;-50
2023/06/20 06:29:29;;;;;;;10.50;9.05;;;30.30;99.90;;;;;;5071476;28;20025;-51
2023/06/20 06:31:55;;;;;;;10.40;9.18;;;30.40;99.90;;;;;;5070353;28;20051;-50
2023/06/20 06:34:21;;;;;;;10.30;9.20;;;29.80;99.50;;;;;;5070685;28;20032;-50
2023/06/20 06:36:49;;;;;;;13.10;9.57;;;29.60;99.90;;;;;;5071285;28;20475;-50
2023/06/20 06:39:17;;;;;;;10.95;8.35;;;29.60;99.90;;;;;;5071309;28;20021;-49
2023/06/20 06:41:46;;;;;;;8.45;7.38;;;29.70;99.90;;;;;;5070127;28;20104;-49
2023/06/20 06:44:11;;;;;;;9.95;8.57;;;30.40;99.90;;;;;;5070267;28;20107;-50
2023/06/20 06:46:37;;;;;;;12.85;9.02;;;30.70;99.90;;;;;;5053696;28;20070;-48
2023/06/20 06:49:02;;;;;;;13.25;7.97;;;31.30;99.00;;;;;;5053369;28;20035;-51
2023/06/20 06:51:29;;;;;;;9.35;7.15;;;31.70;97.60;;;;;;5071244;28;20036;-48
2023/06/20 06:53:54;;;;;;;7.93;7.15;;;32.00;97.10;;;;;;5070821;28;20028;-53
2023/06/20 06:56:20;;;;;;;12.32;8.88;;;32.30;96.60;;;;;;5071082;28;20025;-52
2023/06/20 06:58:45;;;;;;;7.85;7.05;;;32.70;96.20;;;;;;5071290;28;20481;-49
2023/06/20 07:01:11;;;;;;;8.75;7.45;;;33.10;95.60;;;;;;5053560;28;20498;-48
2023/06/20 07:03:37;;;;;;;8.68;7.50;;;33.40;95.30;;;;;;5072660;28;20175;-49
2023/06/20 07:06:03;;;;;;;9.10;8.13;;;33.30;94.90;;;;;;5074784;28;20107;-48
2023/06/20 07:08:29;;;;;;;8.88;7.88;;;33.70;94.70;;;;;;5075644;28;20017;-52
2023/06/20 07:10:54;;;;;;;11.10;8.73;;;34.00;94.30;;;;;;5075313;28;20029;-50
2023/06/20 07:13:23;;;;;;;8.65;7.72;;;34.30;93.50;;;;;;5056538;28;20023;-52
2023/06/20 07:15:48;;;;;;;9.38;8.20;;;34.50;93.30;;;;;;5070287;28;20073;-54
2023/06/20 07:18:14;;;;;;;10.88;7.90;;;34.80;92.30;;;;;;5070416;28;20036;-52
2023/06/20 07:20:39;;;;;;;9.40;8.48;;;34.80;92.20;;;;;;5074515;28;20112;-56
2023/06/20 07:23:05;;;;;;;11.77;8.48;;;35.00;91.80;;;;;;5073191;28;20044;-49
2023/06/20 07:25:31;;;;;;;7.95;7.20;;;35.20;91.80;;;;;;5063471;28;20316;-57
2023/06/20 07:27:57;;;;;;;9.93;8.38;;;35.30;91.90;;;;;;5054382;28;20096;-53
2023/06/20 07:30:22;;;;;;;7.60;7.00;;;35.30;91.30;;;;;;5059694;28;20029;-57
2023/06/20 07:32:48;;;;;;;9.95;8.98;;;35.50;91.90;;;;;;5053283;28;20041;-53
2023/06/20 07:35:14;;;;;;;10.07;9.05;;;34.90;91.60;;;;;;5063603;28;20131;-50
2023/06/20 07:37:40;;;;;;;9.57;7.82;;;34.90;91.50;;;;;;5073581;28;20087;-53
2023/06/20 07:40:07;;;;;;;10.13;8.13;;;34.30;92.10;;;;;;5073785;28;20024;-56
2023/06/20 07:42:33;;;;;;;9.05;8.25;;;34.70;91.80;;;;;;5072548;28;20021;-53
2023/06/20 07:44:58;;;;;;;17.25;9.23;;;34.80;91.80;;;;;;5073291;28;20381;-53
2023/06/20 07:47:24;;;;;;;8.95;8.15;;;35.30;91.00;;;;;;5073347;28;20103;-52
2023/06/20 07:49:49;;;;;;;8.38;7.57;;;35.50;90.60;;;;;;5071977;28;20051;-55
2023/06/20 07:52:15;;;;;;;8.38;7.57;;;35.70;90.60;;;;;;5066010;28;20028;-47
2023/06/20 07:54:40;;;;;;;11.30;7.90;;;35.70;90.40;;;;;;5059005;28;20025;-58
2023/06/20 07:57:06;;;;;;;9.25;8.35;;;35.20;90.50;;;;;;5070554;28;20480;-54
2023/06/20 07:59:32;;;;;;;10.93;9.93;;;35.10;91.10;;;;;;5058340;28;20048;-55
2023/06/20 08:01:58;;;;;;;10.15;9.18;;;35.10;90.40;;;;;;5054697;28;20104;-55
2023/06/20 08:04:23;;;;;;;9.88;7.75;;;34.70;91.10;;;;;;5072086;28;20115;-53
2023/06/20 08:06:49;;;;;;;9.25;8.30;;;34.40;91.60;;;;;;5073030;28;20028;-54
2023/06/20 08:09:14;;;;;;;9.38;8.45;;;34.30;91.50;;;;;;5073176;28;20490;-56
2023/06/20 08:11:40;;;;;;;9.82;8.95;;;34.60;91.40;;;;;;5055231;28;20060;-56
2023/06/20 08:14:06;;;;;;;10.15;9.13;;;34.80;90.90;;;;;;5070670;28;20070;-55
2023/06/20 08:16:31;;;;;;;10.45;9.35;;;35.40;90.80;;;;;;5034679;28;20063;-54
2023/06/20 08:18:57;;;;;;;9.52;8.63;;;35.50;90.60;;;;;;5053124;28;20033;-54
2023/06/20 08:21:22;;;;;;;10.57;9.68;;;35.70;90.30;;;;;;5053265;28;20106;-57
2023/06/20 08:23:48;;;;;;;12.82;11.45;;;35.70;89.50;;;;;;5067350;28;20068;-51
2023/06/20 08:26:14;;;;;;;12.57;11.48;;;35.00;90.30;;;;;;5072708;28;20514;-51
2023/06/20 08:28:39;;;;;;;13.38;12.10;;;34.20;91.10;;;;;;5051483;28;20075;-54
2023/06/20 08:31:05;;;;;;;10.70;9.68;;;33.70;91.20;;;;;;5053409;28;20524;-53
2023/06/20 08:33:30;;;;;;;11.88;10.77;;;33.30;92.50;;;;;;5052475;28;20079;-53
2023/06/20 08:35:56;;;;;;;11.77;10.70;;;33.30;92.40;;;;;;5052694;28;20025;-56
2023/06/20 08:38:22;;;;;;;12.20;11.00;;;33.20;92.50;;;;;;5040248;28;20024;-57
2023/06/20 08:40:47;;;;;;;12.45;11.25;;;33.20;92.20;;;;;;5070849;28;20028;-56
2023/06/20 08:43:16;;;;;;;12.23;11.02;;;33.00;92.50;;;;;;5071328;28;20510;-51
2023/06/20 08:45:42;;;;;;;12.75;11.52;;;33.00;92.50;;;;;;5072619;28;20020;-53
2023/06/20 08:48:09;;;;;;;30.63;12.32;;;33.00;92.50;;;;;;5072326;28;20403;-54
2023/06/20 08:50:36;;;;;;;11.73;10.35;;;33.00;92.90;;;;;;5072737;28;20033;-52
2023/06/20 08:53:04;;;;;;;10.98;9.93;;;33.10;92.80;;;;;;5072602;28;20025;-54
2023/06/20 08:55:31;;;;;;;12.45;10.50;;;33.20;92.60;;;;;;5072558;28;20059;-57
2023/06/20 08:57:56;;;;;;;10.38;9.50;;;33.30;92.30;;;;;;5058269;28;20025;-50
2023/06/20 09:00:23;;;;;;;11.07;10.18;;;33.30;91.80;;;;;;5072286;28;20039;-57
2023/06/20 09:02:52;;;;;;;12.88;11.57;;;33.20;92.00;;;;;;5071593;28;20020;-51
2023/06/20 09:05:19;;;;;;;10.20;9.30;;;32.80;92.50;;;;;;5071995;28;20029;-52
2023/06/20 09:07:45;;;;;;;10.57;9.65;;;32.80;92.70;;;;;;5070240;28;20395;-49
2023/06/20 09:10:14;;;;;;;16.65;10.73;;;33.00;92.60;;;;;;5077865;28;20032;-56
2023/06/20 09:12:52;;;;;;;14.25;9.70;;;33.00;92.60;;;;;;5071703;28;20021;-56
2023/06/20 09:15:19;;;;;;;10.00;9.00;;;33.20;92.50;;;;;;5067821;28;20423;-55
2023/06/20 09:17:50;;;;;;;11.02;9.93;;;33.20;91.90;;;;;;5039304;28;20551;-53
2023/06/20 09:20:15;;;;;;;9.57;8.77;;;33.20;91.80;;;;;;5067148;28;20028;-50
2023/06/20 09:22:42;;;;;;;10.95;9.85;;;33.20;91.90;;;;;;5050719;28;20025;-56
2023/06/20 09:25:12;;;;;;;10.65;9.65;;;32.80;91.70;;;;;;5071705;28;20074;-55
2023/06/20 09:27:41;;;;;;;14.05;10.55;;;33.00;92.50;;;;;;5056162;28;20037;-53
2023/06/20 09:30:08;;;;;;;12.35;9.90;;;32.90;92.20;;;;;;5053941;28;20028;-55
2023/06/20 09:32:35;;;;;;;10.48;9.50;;;32.80;92.70;;;;;;5064128;28;20108;-48
2023/06/20 09:35:03;;;;;;;11.68;8.15;;;32.40;92.80;;;;;;5051628;28;20025;-53
2023/06/20 09:37:38;;;;;;;9.90;8.80;;;32.20;92.80;;;;;;5060685;28;20033;-55
2023/06/20 09:40:09;;;;;;;9.15;8.25;;;31.90;93.30;;;;;;5062646;28;20028;-56
2023/06/20 09:42:39;;;;;;;51.00;45.50;;;31.90;93.30;;;;;;5051515;28;20075;-54
2023/06/20 09:45:05;;;;;;;48.80;39.47;;;31.90;93.50;;;;;;5066990;28;20076;-58
2023/06/20 09:47:33;;;;;;;14.30;11.23;;;32.10;92.90;;;;;;5071519;28;20024;-52
2023/06/20 09:50:02;;;;;;;8.68;7.82;;;31.90;92.00;;;;;;5074045;28;20028;-59
2023/06/20 09:52:35;;;;;;;8.45;7.60;;;31.70;92.70;;;;;;5073604;28;20056;-59
2023/06/20 09:55:08;;;;;;;9.38;7.95;;;31.70;92.40;;;;;;5071200;28;20024;-57
2023/06/20 09:57:40;;;;;;;9.88;6.72;;;31.50;92.20;;;;;;5076155;28;20016;-56
2023/06/20 10:00:13;;;;;;;8.73;7.38;;;31.50;92.50;;;;;;5080398;28;20387;-59
2023/06/20 10:02:43;;;;;;;8.85;8.02;;;31.30;93.00;;;;;;5076215;28;20020;-58
2023/06/20 10:05:09;;;;;;;7.65;6.95;;;31.30;92.60;;;;;;5075425;28;20027;-55
2023/06/20 10:07:37;;;;;;;8.55;7.65;;;31.00;92.90;;;;;;5069271;28;20048;-52
2023/06/20 10:10:03;;;;;;;10.23;7.57;;;31.00;93.20;;;;;;5071688;28;20021;-55
2023/06/20 10:12:30;;;;;;;8.02;7.25;;;30.80;93.10;;;;;;5057043;28;20074;-57
2023/06/20 10:14:56;;;;;;;8.13;7.47;;;30.70;93.50;;;;;;5051330;28;20062;-52
2023/06/20 10:17:42;;;;;;;9.15;6.80;;;30.70;93.60;;;;;;5050313;28;20117;-57
2023/06/20 10:20:37;;;;;;;7.65;6.95;;;30.60;93.80;;;;;;5068781;28;20059;-58
2023/06/20 10:23:05;;;;;;;7.82;7.03;;;30.60;93.90;;;;;;5071885;28;20451;-56
2023/06/20 10:25:32;;;;;;;7.78;6.82;;;30.40;94.30;;;;;;5067227;28;20024;-51
2023/06/20 10:28:02;;;;;;;10.60;7.25;;;30.20;94.10;;;;;;5070862;28;20040;-57
2023/06/20 10:30:45;;;;;;;7.50;6.78;;;30.20;94.30;;;;;;5066279;28;20047;-54
2023/06/20 10:33:11;;;;;;;9.38;6.88;;;30.40;94.30;;;;;;5068697;28;20020;-52
2023/06/20 10:35:50;;;;;;;7.82;7.00;;;30.50;93.70;;;;;;5068804;28;20039;-51
2023/06/20 10:38:16;;;;;;;9.32;7.07;;;30.50;93.40;;;;;;5072370;28;20502;-51
2023/06/20 10:40:41;;;;;;;8.88;7.00;;;30.30;93.30;;;;;;5076422;28;20038;-48
2023/06/20 10:43:17;;;;;;;10.25;7.15;;;30.30;93.10;;;;;;5058561;28;20477;-51
2023/06/20 10:45:53;;;;;;;8.38;7.18;;;30.30;93.10;;;;;;5063884;28;20388;-48
2023/06/20 10:48:20;;;;;;;7.80;6.60;;;30.40;92.90;;;;;;5059444;28;20032;-51
2023/06/20 10:50:46;;;;;;;9.40;6.55;;;30.40;93.00;;;;;;5077858;28;20029;-49
2023/06/20 10:53:13;;;;;;;6.22;5.65;;;30.30;93.10;;;;;;5077258;28;20036;-52
2023/06/20 10:55:39;;;;;;;6.38;5.88;;;30.30;93.60;;;;;;5077454;28;20032;-49
2023/06/20 10:58:04;;;;;;;7.63;6.80;;;30.20;93.30;;;;;;5069223;28;20021;-48
2023/06/20 11:00:30;;;;;;;7.50;6.80;;;30.10;92.70;;;;;;5057700;28;20485;-49
2023/06/20 11:02:56;;;;;;;7.72;6.63;;;30.00;93.00;;;;;;5057180;28;20032;-49
2023/06/20 11:05:26;;;;;;;6.72;5.65;;;30.00;93.40;;;;;;5044406;28;20017;-49
2023/06/20 11:08:03;;;;;;;6.65;6.05;;;30.10;93.70;;;;;;5075581;28;20526;-48
2023/06/20 11:10:36;;;;;;;6.75;6.20;;;30.20;92.60;;;;;;5076793;28;20095;-47
2023/06/20 11:13:04;;;;;;;7.90;7.20;;;30.20;92.90;;;;;;5075689;28;20454;-47
2023/06/20 11:15:35;;;;;;;15.52;13.77;;;30.20;93.30;;;;;;5076294;28;20230;-54
2023/06/20 11:18:05;;;;;;;7.60;6.20;;;30.30;93.40;;;;;;5077070;28;20028;-51
2023/06/20 11:20:36;;;;;;;7.25;6.65;;;30.30;92.60;;;;;;5077237;28;20017;-54
2023/06/20 11:23:04;;;;;;;7.45;6.75;;;30.30;93.40;;;;;;5085958;22;20542;-49
2023/06/20 11:25:35;;;;;;;7.68;6.97;;;30.20;93.30;;;;;;5058262;28;20017;-52
2023/06/20 11:28:08;;;;;;;8.50;6.85;;;30.20;93.00;;;;;;5054102;28;20022;-48
2023/06/20 11:30:38;;;;;;;7.17;6.57;;;30.20;93.00;;;;;;5055427;28;20059;-49
2023/06/20 11:33:05;;;;;;;7.38;5.57;;;30.10;92.70;;;;;;5054308;28;20028;-52
2023/06/20 11:35:49;;;;;;;6.80;6.20;;;30.10;92.80;;;;;;5050056;28;20103;-51
2023/06/20 11:38:19;;;;;;;7.45;6.75;;;30.30;93.10;;;;;;5052628;28;20099;-50
2023/06/20 11:40:45;;;;;;;6.68;5.97;;;30.30;92.80;;;;;;5050825;28;20009;-55
2023/06/20 11:43:22;;;;;;;7.15;6.55;;;30.30;92.30;;;;;;5052534;28;20544;-52
2023/06/20 11:45:48;;;;;;;7.53;6.78;;;30.30;92.80;;;;;;5032055;28;20507;-52
2023/06/20 11:48:15;;;;;;;7.35;6.70;;;30.20;92.60;;;;;;5049183;28;20053;-53
2023/06/20 11:50:43;;;;;;;7.15;6.45;;;30.20;92.90;;;;;;5029828;28;20017;-52
2023/06/20 11:53:25;;;;;;;7.75;6.25;;;30.20;92.90;;;;;;5029695;28;20055;-54
2023/06/20 11:55:52;;;;;;;6.95;6.45;;;30.20;93.10;;;;;;5047007;28;20511;-51
2023/06/20 11:58:18;;;;;;;9.70;6.63;;;30.20;93.10;;;;;;5028478;28;20021;-51
2023/06/20 12:00:47;;;;;;;7.70;6.95;;;30.20;92.50;;;;;;5047053;28;20013;-56
2023/06/20 12:03:17;;;;;;;13.18;6.50;;;30.10;92.00;;;;;;5052619;28;20059;-51
2023/06/20 12:05:43;;;;;;;7.65;6.50;;;30.20;92.10;;;;;;5053126;28;20028;-50
2023/06/20 12:08:08;;;;;;;6.40;5.80;;;30.10;92.50;;;;;;5036244;28;20028;-55
2023/06/20 12:10:39;;;;;;;6.60;6.10;;;30.20;91.70;;;;;;5053730;28;20108;-56
2023/06/20 12:13:05;;;;;;;7.13;6.55;;;30.20;92.90;;;;;;5051424;28;20043;-53
2023/06/20 12:15:30;;;;;;;8.73;7.82;;;30.20;92.90;;;;;;5053212;28;20162;-54
2023/06/20 12:17:56;;;;;;;11.82;10.63;;;30.30;92.40;;;;;;5035806;28;20017;-55
2023/06/20 12:20:22;;;;;;;12.27;9.07;;;30.40;92.30;;;;;;5053575;28;20025;-55
2023/06/20 12:22:48;;;;;;;8.68;6.93;;;30.40;92.00;;;;;;5052941;28;20048;-55
2023/06/20 12:25:14;;;;;;;6.93;6.32;;;30.50;92.10;;;;;;5035307;28;20036;-54
2023/06/20 12:27:39;;;;;;;6.97;6.28;;;30.50;91.60;;;;;;5053319;28;20021;-54
2023/06/20 12:30:06;;;;;;;8.25;6.30;;;30.60;91.40;;;;;;5052436;28;20035;-52
2023/06/20 12:32:32;;;;;;;7.70;6.60;;;30.70;91.10;;;;;;5053180;28;20091;-51
2023/06/20 12:34:57;;;;;;;8.52;6.70;;;30.80;91.40;;;;;;5052433;28;20040;-52
2023/06/20 12:37:23;;;;;;;6.45;5.95;;;30.80;91.10;;;;;;5053312;28;20485;-54
2023/06/20 12:39:50;;;;;;;6.65;6.15;;;30.70;90.80;;;;;;5053178;28;20100;-55
2023/06/20 12:42:18;;;;;;;6.95;6.40;;;30.60;91.20;;;;;;5052972;28;20074;-55
2023/06/20 12:44:44;;;;;;;11.50;7.43;;;30.70;91.50;;;;;;5052558;28;20388;-54